createdAt,value
2022-11-06T00:00:38.190Z,100256.56
2022-11-06T00:03:08.337Z,100266.25
2022-11-06T00:05:57.755Z,100266.97
2022-11-06T00:08:31.247Z,100274.53
2022-11-06T00:10:59.596Z,100272.72
2022-11-06T00:13:28.194Z,100278.13
2022-11-06T00:15:56.158Z,100272.53
2022-11-06T00:18:28.603Z,100265.63
2022-11-06T00:20:56.790Z,100268.66
2022-11-06T00:23:24.908Z,100269.28
2022-11-06T00:25:56.543Z,100269.28
2022-11-06T00:28:24.693Z,100261.84
2022-11-06T00:30:52.674Z,100268.97
2022-11-06T00:33:20.595Z,100262.22
2022-11-06T00:35:49.853Z,100265.16
2022-11-06T00:38:17.787Z,100266.53
2022-11-06T00:40:45.730Z,100260.66
2022-11-06T00:43:13.683Z,100255.94
2022-11-06T00:45:41.617Z,100255.59
2022-11-06T00:48:09.633Z,100256.97
2022-11-06T00:50:37.677Z,100259.00
2022-11-06T00:53:08.009Z,100260.06
2022-11-06T00:55:35.746Z,100264.34
2022-11-06T00:58:03.707Z,100264.84
2022-11-06T01:00:31.800Z,100273.72
2022-11-06T01:02:59.889Z,100270.81
2022-11-06T01:05:27.898Z,100265.19
2022-11-06T01:07:55.881Z,100271.13
2022-11-06T01:10:25.119Z,100266.72
2022-11-06T01:12:53.077Z,100272.69
2022-11-06T01:15:21.026Z,100273.19
2022-11-06T01:17:48.934Z,100273.72
2022-11-06T01:20:16.931Z,100275.19
2022-11-06T01:22:44.829Z,100266.34
2022-11-06T01:25:14.781Z,100283.34
2022-11-06T01:27:44.148Z,100272.63
2022-11-06T01:30:13.257Z,100279.94
2022-11-06T01:32:40.977Z,100285.16
2022-11-06T01:35:09.505Z,100287.38
2022-11-06T01:37:37.726Z,100291.94
2022-11-06T01:40:07.762Z,100290.97
2022-11-06T01:42:35.726Z,100298.94
2022-11-06T01:45:24.709Z,100294.59
2022-11-06T01:47:53.026Z,100287.75
2022-11-06T01:50:21.074Z,100294.91
2022-11-06T01:52:51.663Z,100294.72
2022-11-06T01:55:23.806Z,100290.63
2022-11-06T01:57:52.542Z,100301.19
2022-11-06T02:00:21.988Z,100297.94
2022-11-06T02:02:51.285Z,100292.00
2022-11-06T02:05:19.707Z,100302.16
2022-11-06T02:07:48.057Z,100294.41
2022-11-06T02:10:16.597Z,100292.06
2022-11-06T02:12:52.888Z,100276.94
2022-11-06T02:15:30.623Z,100286.59
2022-11-06T02:18:16.277Z,100294.25
2022-11-06T02:20:54.579Z,100297.63
2022-11-06T02:23:51.075Z,100283.72
2022-11-06T02:26:53.391Z,100300.69
2022-11-06T02:29:27.102Z,100303.06
2022-11-06T02:31:58.278Z,100296.81
2022-11-06T02:34:28.615Z,100302.09
2022-11-06T02:37:01.421Z,100308.22
2022-11-06T02:39:33.043Z,100306.34
2022-11-06T02:42:04.307Z,100303.31
2022-11-06T02:44:34.871Z,100295.88
2022-11-06T02:47:07.337Z,100299.28
2022-11-06T02:49:39.911Z,100306.56
2022-11-06T02:52:11.283Z,100311.47
2022-11-06T02:54:44.271Z,100312.47
2022-11-06T02:57:16.410Z,100314.88
2022-11-06T02:59:49.945Z,100320.03
2022-11-06T03:02:23.600Z,100328.28
2022-11-06T03:04:56.773Z,100320.13
2022-11-06T03:07:32.936Z,100325.56
2022-11-06T03:10:01.367Z,100327.28
2022-11-06T03:12:34.575Z,100330.16
2022-11-06T03:15:14.296Z,100336.31
2022-11-06T03:17:48.966Z,100330.41
2022-11-06T03:20:22.577Z,100322.94
2022-11-06T03:22:57.322Z,100328.16
2022-11-06T03:25:28.346Z,100338.53
2022-11-06T03:28:04.711Z,100334.13
2022-11-06T03:30:36.042Z,100343.31
2022-11-06T03:33:10.948Z,100342.19
2022-11-06T03:35:44.679Z,100323.63
2022-11-06T03:38:18.479Z,100336.59
2022-11-06T03:40:51.445Z,100346.44
2022-11-06T03:43:23.647Z,100338.16
2022-11-06T03:45:54.264Z,100343.59
2022-11-06T03:48:27.206Z,100337.31
2022-11-06T03:50:59.827Z,100342.75
2022-11-06T03:53:31.468Z,100341.34
2022-11-06T03:56:06.569Z,100348.25
2022-11-06T03:58:40.381Z,100352.66
2022-11-06T04:01:12.003Z,100354.22
2022-11-06T04:03:45.341Z,100357.94
2022-11-06T04:06:18.217Z,100363.06
2022-11-06T04:09:06.027Z,100361.66
2022-11-06T04:11:55.039Z,100357.31
2022-11-06T04:14:26.259Z,100361.75
2022-11-06T04:16:57.636Z,100364.22
2022-11-06T04:19:25.604Z,100350.78
2022-11-06T04:22:23.326Z,100363.06
2022-11-06T04:25:22.467Z,100358.34
2022-11-06T04:28:03.609Z,100360.19
2022-11-06T04:30:40.380Z,100358.34
2022-11-06T04:33:14.507Z,100369.97
2022-11-06T04:35:55.418Z,100361.13
2022-11-06T04:38:34.201Z,100360.09
2022-11-06T04:41:12.316Z,100366.41
2022-11-06T04:43:45.425Z,100366.41
2022-11-06T04:46:21.697Z,100360.81
2022-11-06T04:48:51.193Z,100371.84
2022-11-06T04:51:23.813Z,100374.56
2022-11-06T04:53:53.399Z,100374.56
2022-11-06T04:56:34.707Z,100379.44
2022-11-06T04:59:03.678Z,100383.16
2022-11-06T05:01:33.551Z,100376.25
2022-11-06T05:04:01.731Z,100386.09
2022-11-06T05:06:30.339Z,100381.22
2022-11-06T05:08:59.119Z,100392.25
2022-11-06T05:11:27.431Z,100387.97
2022-11-06T05:13:56.894Z,100389.69
2022-11-06T05:16:24.888Z,100399.34
2022-11-06T05:18:54.251Z,100398.38
2022-11-06T05:21:39.723Z,100401.94
2022-11-06T05:24:08.563Z,100411.78
2022-11-06T05:26:36.622Z,100407.50
2022-11-06T05:29:04.724Z,100412.94
2022-11-06T05:31:32.950Z,100412.59
2022-11-06T05:34:02.285Z,100416.28
2022-11-06T05:36:30.296Z,100415.66
2022-11-06T05:38:58.231Z,100424.13
2022-11-06T05:41:26.229Z,100427.41
2022-11-06T05:43:54.372Z,100433.38
2022-11-06T05:46:46.915Z,100428.78
2022-11-06T05:49:11.769Z,100431.38
2022-11-06T05:51:39.781Z,100436.81
2022-11-06T05:54:07.724Z,100442.25
2022-11-06T05:56:35.695Z,100450.22
2022-11-06T05:59:03.718Z,100456.13
2022-11-06T06:01:31.927Z,100449.13
2022-11-06T06:03:59.972Z,100459.53
2022-11-06T06:06:29.751Z,100468.38
2022-11-06T06:08:57.657Z,100470.41
2022-11-06T06:11:25.621Z,100468.06
2022-11-06T06:13:53.587Z,100472.81
2022-11-06T06:16:21.711Z,100475.69
2022-11-06T06:18:51.177Z,100483.66
2022-11-06T06:21:19.229Z,100495.25
2022-11-06T06:23:48.547Z,100497.97
2022-11-06T06:26:16.508Z,100494.22
2022-11-06T06:28:44.545Z,100500.84
2022-11-06T06:31:12.757Z,100459.59
2022-11-06T06:33:40.836Z,100508.28
2022-11-06T06:36:09.809Z,100508.81
2022-11-06T06:38:37.777Z,100512.38
2022-11-06T06:41:08.581Z,100515.94
2022-11-06T06:43:36.790Z,100528.38
2022-11-06T06:46:06.951Z,100520.22
2022-11-06T06:48:35.574Z,100526.38
2022-11-06T06:51:04.923Z,100524.66
2022-11-06T06:53:32.926Z,100527.91
2022-11-06T06:56:01.850Z,100527.22
2022-11-06T06:58:31.718Z,100526.75
2022-11-06T07:01:02.179Z,100532.91
2022-11-06T07:03:30.417Z,100545.47
2022-11-06T07:05:59.443Z,100531.34
2022-11-06T07:08:28.159Z,100536.78
2022-11-06T07:11:00.545Z,100536.91
2022-11-06T07:13:35.220Z,100539.31
2022-11-06T07:16:06.501Z,100550.06
2022-11-06T07:18:35.148Z,100541.41
2022-11-06T07:21:05.963Z,100543.28
2022-11-06T07:23:35.105Z,100542.44
2022-11-06T07:26:02.999Z,100538.56
2022-11-06T07:28:31.082Z,100539.19
2022-11-06T07:31:00.509Z,100541.06
2022-11-06T07:33:30.372Z,100543.78
2022-11-06T07:36:04.106Z,100540.75
2022-11-06T07:38:33.699Z,100537.53
2022-11-06T07:41:03.386Z,100540.97
2022-11-06T07:43:31.406Z,100543.22
2022-11-06T07:46:01.398Z,100543.91
2022-11-06T07:48:31.544Z,100548.78
2022-11-06T07:51:00.201Z,100546.47
2022-11-06T07:53:28.092Z,100552.94
2022-11-06T07:55:57.416Z,100550.44
2022-11-06T07:58:25.864Z,100552.63
2022-11-06T08:00:55.663Z,100546.88
2022-11-06T08:03:25.550Z,100545.44
2022-11-06T08:05:54.908Z,100548.56
2022-11-06T08:08:23.028Z,100550.34
2022-11-06T08:10:52.134Z,100555.94
2022-11-06T08:13:19.930Z,100558.97
2022-11-06T08:15:47.855Z,100561.75
2022-11-06T08:18:16.227Z,100553.16
2022-11-06T08:20:44.399Z,100559.75
2022-11-06T08:23:14.843Z,100556.72
2022-11-06T08:25:42.789Z,100562.00
2022-11-06T08:28:11.638Z,100568.59
2022-11-06T08:30:39.714Z,100556.56
2022-11-06T08:33:09.730Z,100554.38
2022-11-06T08:35:38.468Z,100554.78
2022-11-06T08:38:06.415Z,100553.59
2022-11-06T08:40:38.415Z,100562.38
2022-11-06T08:43:08.496Z,100565.56
2022-11-06T08:45:38.981Z,100559.97
2022-11-06T08:48:07.773Z,100560.59
2022-11-06T08:50:39.305Z,100564.34
2022-11-06T08:53:08.160Z,100563.31
2022-11-06T08:55:39.603Z,100569.91
2022-11-06T08:58:08.167Z,100570.31
2022-11-06T09:00:36.598Z,100573.41
2022-11-06T09:03:06.838Z,100581.25
2022-11-06T09:05:35.023Z,100574.97
2022-11-06T09:08:03.225Z,100576.34
2022-11-06T09:10:31.146Z,100577.91
2022-11-06T09:13:00.986Z,100583.88
2022-11-06T09:15:29.021Z,100583.03
2022-11-06T09:17:57.026Z,100583.66
2022-11-06T09:20:26.415Z,100593.50
2022-11-06T09:22:55.131Z,100587.78
2022-11-06T09:25:23.060Z,100588.06
2022-11-06T09:27:57.641Z,100584.38
2022-11-06T09:30:30.631Z,100582.41
2022-11-06T09:33:00.167Z,100585.97
2022-11-06T09:35:30.309Z,100588.38
2022-11-06T09:38:03.078Z,100589.47
2022-11-06T09:40:35.038Z,100598.69
2022-11-06T09:43:50.073Z,100587.69
2022-11-06T09:46:23.085Z,100589.25
2022-11-06T09:48:57.898Z,100588.06
2022-11-06T09:51:34.682Z,100587.44
2022-11-06T09:54:09.400Z,100589.97
2022-11-06T09:56:41.350Z,100585.75
2022-11-06T09:59:15.901Z,100584.34
2022-11-06T10:01:48.688Z,100589.56
2022-11-06T10:04:34.003Z,100581.41
2022-11-06T10:07:02.055Z,100578.59
2022-11-06T10:09:30.905Z,100584.13
2022-11-06T10:12:12.480Z,100574.47
2022-11-06T10:14:53.338Z,100573.53
2022-11-06T10:17:37.955Z,100575.41
2022-11-06T10:20:26.903Z,100576.88
2022-11-06T10:23:08.379Z,100574.53
2022-11-06T10:25:52.295Z,100572.88
2022-11-06T10:28:40.055Z,100585.94
2022-11-06T10:31:17.018Z,100585.25
2022-11-06T10:33:56.397Z,100582.25
2022-11-06T10:36:29.514Z,100591.78
2022-11-06T10:39:00.211Z,100577.41
2022-11-06T10:41:41.477Z,100580.50
2022-11-06T10:44:19.282Z,100581.16
2022-11-06T10:46:50.861Z,100580.91
2022-11-06T10:49:28.910Z,100578.56
2022-11-06T10:52:13.169Z,100579.34
2022-11-06T10:54:58.167Z,100574.97
2022-11-06T10:57:34.233Z,100572.94
2022-11-06T11:00:02.310Z,100580.25
2022-11-06T11:02:33.493Z,100572.41
2022-11-06T11:05:03.223Z,100572.25
2022-11-06T11:07:35.267Z,100569.69
2022-11-06T11:10:27.669Z,100574.22
2022-11-06T11:12:58.055Z,100565.88
2022-11-06T11:15:28.247Z,100569.44
2022-11-06T11:18:20.350Z,100567.50
2022-11-06T11:20:51.920Z,100570.03
2022-11-06T11:23:22.512Z,100567.69
2022-11-06T11:25:52.694Z,100566.53
2022-11-06T11:28:28.484Z,100563.34
2022-11-06T11:31:02.011Z,100567.44
2022-11-06T11:33:30.192Z,100566.75
2022-11-06T11:35:59.534Z,100561.94
2022-11-06T11:38:27.991Z,100560.94
2022-11-06T11:41:07.572Z,100559.31
2022-11-06T11:43:35.728Z,100561.19
2022-11-06T11:46:06.979Z,100563.09
2022-11-06T11:48:46.088Z,100565.88
2022-11-06T11:51:25.769Z,100561.47
2022-11-06T11:53:57.632Z,100558.97
2022-11-06T11:56:57.810Z,100559.81
2022-11-06T11:59:20.257Z,100557.97
2022-11-06T12:01:49.437Z,100559.59
2022-11-06T12:04:23.707Z,100559.81
2022-11-06T12:06:59.029Z,100554.38
2022-11-06T12:09:29.087Z,100560.69
2022-11-06T12:12:00.299Z,100562.06
2022-11-06T12:14:38.808Z,100564.78
2022-11-06T12:17:15.564Z,100561.47
2022-11-06T12:19:49.225Z,100562.19
2022-11-06T12:22:27.964Z,100567.97
2022-11-06T12:25:01.437Z,100564.97
2022-11-06T12:27:34.946Z,100573.97
2022-11-06T12:30:06.843Z,100562.56
2022-11-06T12:32:45.657Z,100570.53
2022-11-06T12:35:25.124Z,100576.94
2022-11-06T12:38:12.392Z,100573.16
2022-11-06T12:40:42.332Z,100577.19
2022-11-06T12:43:17.290Z,100574.47
2022-11-06T12:45:59.119Z,100577.06
2022-11-06T12:48:42.171Z,100586.38
2022-11-06T12:51:17.235Z,100584.50
2022-11-06T12:53:59.387Z,100585.66
2022-11-06T12:56:37.248Z,100580.84
2022-11-06T12:59:15.907Z,100578.47
2022-11-06T13:01:53.456Z,100581.03
2022-11-06T13:04:37.866Z,100585.22
2022-11-06T13:07:45.154Z,100579.22
2022-11-06T13:10:40.701Z,100574.19
2022-11-06T13:13:22.748Z,100581.81
2022-11-06T13:15:57.543Z,100584.91
2022-11-06T13:18:30.687Z,100583.03
2022-11-06T13:21:03.431Z,100582.66
2022-11-06T13:23:36.248Z,100578.56
2022-11-06T13:26:14.263Z,100589.25
2022-11-06T13:28:46.312Z,100581.00
2022-11-06T13:31:18.744Z,100580.16
2022-11-06T13:33:50.440Z,100578.78
2022-11-06T13:36:20.193Z,100578.22
2022-11-06T13:38:55.113Z,100579.63
2022-11-06T13:41:28.830Z,100576.91
2022-11-06T13:44:02.036Z,100577.66
2022-11-06T13:46:38.083Z,100579.75
2022-11-06T13:49:17.999Z,100578.69
2022-11-06T13:51:52.602Z,100576.13
2022-11-06T13:54:32.471Z,100573.97
2022-11-06T13:57:23.157Z,100579.69
2022-11-06T14:00:04.175Z,100587.47
2022-11-06T14:03:15.099Z,100585.72
2022-11-06T14:05:56.969Z,100579.69
2022-11-06T14:08:29.999Z,100576.81
2022-11-06T14:11:01.725Z,100583.59
2022-11-06T14:13:34.568Z,100590.81
2022-11-06T14:16:06.778Z,100593.25
2022-11-06T14:18:35.535Z,100592.59
2022-11-06T14:21:28.557Z,100600.13
2022-11-06T14:24:05.851Z,100595.38
2022-11-06T14:26:39.759Z,100597.78
2022-11-06T14:29:55.709Z,100596.38
2022-11-06T14:32:41.038Z,100585.38
2022-11-06T14:35:51.664Z,100594.69
2022-11-06T14:38:37.468Z,100593.66
2022-11-06T14:41:53.539Z,100604.53
2022-11-06T14:44:34.477Z,100602.28
2022-11-06T14:47:07.089Z,100603.84
2022-11-06T14:49:40.750Z,100602.97
2022-11-06T14:52:13.954Z,100613.16
2022-11-06T14:54:51.097Z,100621.75
2022-11-06T14:57:36.019Z,100616.88
2022-11-06T15:00:05.260Z,100621.75
2022-11-06T15:02:37.332Z,100621.78
2022-11-06T15:05:09.225Z,100621.09
2022-11-06T15:08:10.423Z,100619.34
2022-11-06T15:10:56.969Z,100620.69
2022-11-06T15:13:34.125Z,100623.28
2022-11-06T15:16:07.552Z,100620.16
2022-11-06T15:18:39.653Z,100623.75
2022-11-06T15:21:11.341Z,100628.31
2022-11-06T15:23:46.322Z,100629.31
2022-11-06T15:26:25.068Z,100635.59
2022-11-06T15:29:07.837Z,100636.75
2022-11-06T15:31:36.225Z,100633.91
2022-11-06T15:34:09.705Z,100643.03
2022-11-06T15:36:41.228Z,100645.22
2022-11-06T15:39:33.143Z,100651.38
2022-11-06T15:42:01.483Z,100650.22
2022-11-06T15:44:30.057Z,100653.97
2022-11-06T15:46:59.889Z,100654.50
2022-11-06T15:49:29.254Z,100654.19
2022-11-06T15:51:58.914Z,100660.22
2022-11-06T15:54:37.994Z,100664.09
2022-11-06T15:57:08.810Z,100660.53
2022-11-06T15:59:36.867Z,100657.69
2022-11-06T16:02:06.778Z,100664.81
2022-11-06T16:04:38.064Z,100664.50
2022-11-06T16:07:06.890Z,100666.38
2022-11-06T16:09:35.600Z,100670.38
2022-11-06T16:12:04.115Z,100672.25
2022-11-06T16:14:32.192Z,100668.69
2022-11-06T16:17:10.793Z,100669.53
2022-11-06T16:19:41.295Z,100677.06
2022-11-06T16:22:12.037Z,100677.97
2022-11-06T16:24:45.358Z,100676.94
2022-11-06T16:27:15.486Z,100684.22
2022-11-06T16:29:48.151Z,100682.81
2022-11-06T16:32:19.191Z,100679.25
2022-11-06T16:34:49.656Z,100692.81
2022-11-06T16:37:38.337Z,100698.25
2022-11-06T16:40:39.876Z,100701.13
2022-11-06T16:43:16.808Z,100692.97
2022-11-06T16:45:57.090Z,100683.56
2022-11-06T16:48:29.437Z,100697.09
2022-11-06T16:51:00.784Z,100705.41
2022-11-06T16:53:31.494Z,100703.66
2022-11-06T16:56:01.715Z,100697.25
2022-11-06T16:58:33.502Z,100696.38
2022-11-06T17:01:04.207Z,100703.66
2022-11-06T17:03:40.698Z,100698.53
2022-11-06T17:06:21.371Z,100706.38
2022-11-06T17:09:03.617Z,100701.81
2022-11-06T17:11:34.610Z,100701.66
2022-11-06T17:14:12.139Z,100705.09
2022-11-06T17:16:48.529Z,100697.50
2022-11-06T17:19:16.809Z,100702.81
2022-11-06T17:21:46.376Z,100707.09
2022-11-06T17:27:02.391Z,100708.19
2022-11-06T17:29:30.391Z,100699.22
2022-11-06T17:31:58.412Z,100709.09
2022-11-06T17:34:28.012Z,100713.19
2022-11-06T17:36:57.669Z,100710.78
2022-11-06T17:39:25.877Z,100712.94
2022-11-06T17:41:54.604Z,100718.34
2022-11-06T17:44:23.128Z,100721.66
2022-11-06T17:46:51.482Z,100719.09
2022-11-06T17:49:19.705Z,100716.69
2022-11-06T17:52:01.228Z,100717.84
2022-11-06T17:54:33.582Z,100727.00
2022-11-06T17:57:04.700Z,100724.00
2022-11-06T17:59:33.285Z,100721.69
2022-11-06T18:02:01.852Z,100723.41
2022-11-06T18:04:31.618Z,100722.00
2022-11-06T18:06:59.700Z,100724.41
2022-11-06T18:09:28.010Z,100722.41
2022-11-06T18:11:57.785Z,100726.28
2022-11-06T18:14:27.686Z,100743.00
2022-11-06T18:16:56.040Z,100732.56
2022-11-06T18:19:25.825Z,100732.72
2022-11-06T18:21:54.742Z,100731.72
2022-11-06T18:24:22.929Z,100727.97
2022-11-06T18:26:51.011Z,100728.28
2022-11-06T18:29:20.729Z,100731.44
2022-11-06T18:31:48.967Z,100723.31
2022-11-06T18:34:20.968Z,100733.16
2022-11-06T18:36:50.173Z,100729.72
2022-11-06T18:39:18.622Z,100728.44
2022-11-06T18:41:46.696Z,100728.56
2022-11-06T18:44:17.151Z,100726.72
2022-11-06T18:46:46.903Z,100734.44
2022-11-06T18:49:15.266Z,100736.44
2022-11-06T18:51:43.484Z,100735.59
2022-11-06T18:54:13.338Z,100735.72
2022-11-06T18:56:41.648Z,100739.03
2022-11-06T18:59:16.669Z,100738.44
2022-11-06T19:01:46.512Z,100748.88
2022-11-06T19:04:14.742Z,100740.03
2022-11-06T19:06:42.910Z,100731.63
2022-11-06T19:09:11.620Z,100736.16
2022-11-06T19:11:39.784Z,100737.00
2022-11-06T19:14:07.957Z,100739.72
2022-11-06T19:16:36.192Z,100738.31
2022-11-06T19:19:07.453Z,100745.44
2022-11-06T19:21:35.728Z,100739.84
2022-11-06T19:24:05.746Z,100740.88
2022-11-06T19:26:35.803Z,100741.28
2022-11-06T19:29:04.712Z,100746.00
2022-11-06T19:31:34.360Z,100739.47
2022-11-06T19:34:04.010Z,100743.59
2022-11-06T19:36:33.769Z,100738.28
2022-11-06T19:39:01.960Z,100746.56
2022-11-06T19:41:30.447Z,100745.56
2022-11-06T19:44:00.242Z,100747.72
2022-11-06T19:46:34.937Z,100745.88
2022-11-06T19:49:04.067Z,100756.56
2022-11-06T19:51:37.663Z,100756.72
2022-11-06T19:54:07.711Z,100759.00
2022-11-06T19:56:35.919Z,100771.28
2022-11-06T19:59:04.097Z,100766.44
2022-11-06T20:01:34.467Z,100764.72
2022-11-06T20:04:02.833Z,100766.44
2022-11-06T20:06:30.871Z,100765.72
2022-11-06T20:09:00.485Z,100777.59
2022-11-06T20:11:28.519Z,100765.84
2022-11-06T20:13:57.787Z,100766.84
2022-11-06T20:16:26.470Z,100770.84
2022-11-06T20:18:55.896Z,100770.56
2022-11-06T20:21:26.279Z,100774.97
2022-11-06T20:23:54.327Z,100777.97
2022-11-06T20:26:24.416Z,100771.88
2022-11-06T20:28:52.412Z,100767.41
2022-11-06T20:31:21.681Z,100774.28
2022-11-06T20:33:50.621Z,100774.59
2022-11-06T20:36:20.606Z,100765.84
2022-11-06T20:38:48.562Z,100767.56
2022-11-06T20:41:17.181Z,100770.56
2022-11-06T20:43:46.540Z,100768.00
2022-11-06T20:46:15.927Z,100783.53
2022-11-06T20:48:45.287Z,100765.69
2022-11-06T20:51:15.332Z,100771.88
2022-11-06T20:53:43.659Z,100778.56
2022-11-06T20:56:14.008Z,100771.72
2022-11-06T20:58:42.530Z,100776.03
2022-11-06T21:01:14.599Z,100774.97
2022-11-06T21:03:42.622Z,100777.69
2022-11-06T21:06:11.030Z,100775.13
2022-11-06T21:08:40.579Z,100781.28
2022-11-06T21:11:12.079Z,100781.28
2022-11-06T21:13:41.421Z,100781.72
2022-11-06T21:16:13.495Z,100777.97
2022-11-06T21:18:42.764Z,100768.16
2022-11-06T21:21:11.743Z,100775.44
2022-11-06T21:23:39.973Z,100782.00
2022-11-06T21:26:10.571Z,100785.72
2022-11-06T21:28:39.465Z,100773.56
2022-11-06T21:31:12.184Z,100769.41
2022-11-06T21:33:49.958Z,100773.56
2022-11-06T21:36:20.570Z,100780.00
2022-11-06T21:38:49.130Z,100774.88
2022-11-06T21:41:19.245Z,100768.72
2022-11-06T21:43:48.115Z,100775.00
2022-11-06T21:46:16.636Z,100772.41
2022-11-06T21:48:47.315Z,100778.44
2022-11-06T21:51:18.950Z,100775.72
2022-11-06T21:54:05.065Z,100769.28
2022-11-06T21:56:33.773Z,100758.47
2022-11-06T21:59:03.459Z,100773.44
2022-11-06T22:01:32.158Z,100772.00
2022-11-06T22:04:00.837Z,100769.72
2022-11-06T22:06:31.106Z,100769.88
2022-11-06T22:09:00.433Z,100768.44
2022-11-06T22:11:30.839Z,100766.00
2022-11-06T22:14:00.689Z,100766.44
2022-11-06T22:16:31.458Z,100764.28
2022-11-06T22:19:00.472Z,100778.28
2022-11-06T22:21:31.057Z,100777.13
2022-11-06T22:23:59.556Z,100786.88
2022-11-06T22:26:30.124Z,100790.16
2022-11-06T22:29:00.388Z,100783.41
2022-11-06T22:31:29.531Z,100781.72
2022-11-06T22:33:57.561Z,100778.69
2022-11-06T22:36:26.265Z,100782.13
2022-11-06T22:38:55.912Z,100788.97
2022-11-06T22:41:25.337Z,100786.13
2022-11-06T22:43:53.921Z,100785.69
2022-11-06T22:46:23.838Z,100779.13
2022-11-06T22:48:53.103Z,100780.00
2022-11-06T22:51:23.178Z,100782.28
2022-11-06T22:53:51.489Z,100775.69
2022-11-06T22:56:22.001Z,100773.56
2022-11-06T22:58:54.559Z,100780.00
2022-11-06T23:01:23.850Z,100770.59
2022-11-06T23:03:56.536Z,100772.16
2022-11-06T23:06:25.481Z,100770.59
2022-11-06T23:08:54.103Z,100768.88
2022-11-06T23:11:25.104Z,100766.00
2022-11-06T23:13:54.063Z,100763.16
2022-11-06T23:16:39.020Z,100762.44
2022-11-06T23:19:07.204Z,100759.88
2022-11-06T23:21:35.186Z,100760.03
2022-11-06T23:24:03.522Z,100760.88
2022-11-06T23:26:33.326Z,100767.59
2022-11-06T23:29:02.088Z,100769.00
2022-11-06T23:31:30.125Z,100774.88
2022-11-06T23:33:58.119Z,100766.56
2022-11-06T23:36:26.231Z,100772.41
2022-11-06T23:38:54.968Z,100778.44
2022-11-06T23:41:40.742Z,100776.16
2022-11-06T23:44:30.776Z,100785.88
2022-11-06T23:46:57.879Z,100791.72
2022-11-06T23:49:26.244Z,100781.31
2022-11-06T23:51:54.407Z,100783.56
2022-11-06T23:54:22.400Z,100777.28
2022-11-06T23:56:50.358Z,100781.44
2022-11-06T23:59:19.727Z,100776.84
